Time;durP1;ratioP1;P1;durP2;ratioP2;P2;SDS_P1;SDS_P2;PMS_P1;PMS_P2;Temp;Humidity;BMP_temperature;BMP_pressure;BME280_temperature;BME280_humidity;BME280_pressure;Samples;Min_cycle;Max_cycle;Signal;HPM_P1;HPM_P2
2021/12/27 00:01:26;;;;;;;6.82;2.90;;;;;;;-11.30;65.33;99135.81;4956421;29;20055;-87
2021/12/27 00:03:56;;;;;;;5.93;3.38;;;;;;;-11.48;65.49;99110.09;4959468;29;20059;-88
2021/12/27 00:06:23;;;;;;;;;;;;;;;-11.39;65.86;99135.13;4960182;29;20069;-87
2021/12/27 00:08:51;;;;;;;6.68;3.05;;;;;;;-11.35;65.03;99154.78;4959482;29;19982;-87
2021/12/27 00:11:19;;;;;;;6.93;3.00;;;;;;;-11.36;65.53;99150.47;4942916;29;20071;-86
2021/12/27 00:13:46;;;;;;;5.88;3.28;;;;;;;-11.46;65.72;99118.66;4958699;29;20103;-89
2021/12/27 00:16:14;;;;;;;6.10;3.15;;;;;;;-11.32;65.86;99157.53;4959215;29;20043;-83
2021/12/27 00:18:41;;;;;;;7.18;3.15;;;;;;;-11.40;65.82;99130.81;4946765;29;20058;-85
2021/12/27 00:21:08;;;;;;;5.80;3.53;;;;;;;-11.30;65.84;99150.09;4942037;29;20097;-87
2021/12/27 00:23:36;;;;;;;6.72;3.58;;;;;;;-11.29;65.59;99169.47;4956508;29;20055;-87
2021/12/27 00:26:03;;;;;;;5.60;3.20;;;;;;;-11.30;66.07;99173.66;4939212;29;20055;-87
2021/12/27 00:28:30;;;;;;;4.70;2.97;;;;;;;-11.41;65.79;99160.22;4940067;29;20107;-84
2021/12/27 00:30:58;;;;;;;5.97;3.45;;;;;;;-11.37;65.98;99157.16;4957943;29;20058;-86
2021/12/27 00:33:26;;;;;;;9.65;3.60;;;;;;;-11.38;66.24;99163.00;4963211;29;20082;-83
2021/12/27 00:35:53;;;;;;;4.88;3.05;;;;;;;-11.43;66.09;99174.34;4945739;29;20431;-85
2021/12/27 00:38:20;;;;;;;5.80;3.33;;;;;;;-11.50;66.28;99169.59;4963094;29;20062;-86
2021/12/27 00:40:47;;;;;;;7.53;3.63;;;;;;;-11.57;66.28;99170.75;4945831;29;20146;-84
2021/12/27 00:43:16;;;;;;;8.40;4.15;;;;;;;-11.57;66.21;99165.69;4962361;29;20067;-87
2021/12/27 00:45:43;;;;;;;6.22;3.08;;;;;;;-11.54;66.41;99175.13;4974491;28;20497;-85
2021/12/27 00:48:10;;;;;;;6.40;3.20;;;;;;;-11.48;66.11;99173.09;4958383;28;20057;-84
2021/12/27 00:50:37;;;;;;;8.10;3.78;;;;;;;-11.45;66.19;99180.91;4960000;28;20150;-83
2021/12/27 00:53:04;;;;;;;7.45;3.53;;;;;;;-11.41;66.32;99195.50;4962511;28;20292;-84
2021/12/27 00:55:31;;;;;;;5.32;3.60;;;;;;;-11.39;66.23;99185.56;4979275;28;20059;-85
2021/12/27 00:57:59;;;;;;;7.00;3.60;;;;;;;-11.49;65.86;99160.38;4979891;28;20046;-86
2021/12/27 01:00:26;;;;;;;9.88;3.90;;;;;;;-11.28;65.89;99199.88;4968694;28;20109;-84
2021/12/27 01:02:55;;;;;;;8.95;3.60;;;;;;;-11.35;66.15;99187.56;4979156;28;20085;-84
2021/12/27 01:05:25;;;;;;;7.95;3.80;;;;;;;-11.39;65.98;99196.50;4961525;28;20451;-86
2021/12/27 01:07:52;;;;;;;7.18;3.63;;;;;;;-11.43;66.23;99211.28;4961278;28;20057;-86
2021/12/27 01:13:25;;;;;;;7.88;3.85;;;;;;;-11.54;66.04;99193.66;4942084;28;20058;-86
2021/12/27 01:16:14;;;;;;;7.68;3.72;;;;;;;-11.38;66.10;99220.06;4978408;28;20061;-84
2021/12/27 01:18:50;;;;;;;7.25;3.33;;;;;;;-11.44;66.54;99223.00;4978671;28;20051;-85
2021/12/27 01:21:20;;;;;;;9.63;3.42;;;;;;;-11.36;66.17;99231.16;4978063;28;20059;-84
2021/12/27 01:23:48;;;;;;;;;;;;;;;-11.41;66.24;99235.84;4978933;28;20054;-84
2021/12/27 01:26:15;;;;;;;4.90;3.13;;;;;;;-11.30;66.24;99239.22;4978130;28;20357;-85
2021/12/27 01:28:43;;;;;;;9.45;3.67;;;;;;;-11.20;65.96;99235.78;4981510;28;20396;-85
2021/12/27 01:31:12;;;;;;;6.45;3.47;;;;;;;-11.25;65.67;99225.31;4979901;28;20059;-85
2021/12/27 01:33:40;;;;;;;5.88;2.80;;;;;;;-11.20;65.49;99229.09;4981879;28;20162;-88
2021/12/27 01:36:07;;;;;;;9.98;3.75;;;;;;;-11.21;65.49;99218.88;4980863;28;20051;-85
2021/12/27 01:38:36;;;;;;;8.07;3.60;;;;;;;-11.19;65.58;99232.47;4979199;28;20062;-86
2021/12/27 01:41:05;;;;;;;6.35;3.38;;;;;;;-11.02;65.46;99247.28;4961349;28;20098;-87
2021/12/27 01:43:34;;;;;;;8.73;3.75;;;;;;;-10.98;65.66;99250.94;4978162;28;20073;-86
2021/12/27 01:46:05;;;;;;;;;;;;;;;-11.10;65.67;99260.94;4970809;28;20058;-87
2021/12/27 01:48:37;;;;;;;7.80;3.58;;;;;;;-11.02;65.84;99259.03;4998937;28;19949;-86
2021/12/27 01:51:12;;;;;;;10.23;4.25;;;;;;;-10.98;65.81;99250.94;4998763;28;20059;-85
2021/12/27 01:53:42;;;;;;;12.50;4.93;;;;;;;-10.92;65.56;99264.03;4986630;28;20047;-87
2021/12/27 01:56:11;;;;;;;8.20;3.45;;;;;;;-10.91;65.57;99263.25;4982120;28;20043;-89
2021/12/27 01:58:39;;;;;;;11.10;4.20;;;;;;;-10.85;65.70;99268.78;4964255;28;20054;-91
2021/12/27 02:01:09;;;;;;;7.90;3.75;;;;;;;-10.85;65.73;99270.44;4981748;28;20061;-88
2021/12/27 02:03:38;;;;;;;9.50;4.25;;;;;;;-10.83;65.93;99268.91;4948532;28;20043;-87
2021/12/27 02:06:06;;;;;;;7.03;3.50;;;;;;;-10.90;65.61;99265.03;4963559;28;20540;-90
2021/12/27 02:08:35;;;;;;;9.70;3.70;;;;;;;-11.13;65.88;99241.41;4981941;28;20057;-86
2021/12/27 02:11:04;;;;;;;7.50;3.33;;;;;;;-10.99;66.45;99266.81;4965112;28;20066;-87
2021/12/27 02:13:32;;;;;;;8.77;3.85;;;;;;;-11.07;66.58;99275.47;4994692;28;20054;-86
2021/12/27 02:15:59;;;;;;;7.95;3.70;;;;;;;-11.02;66.45;99279.22;4993541;28;20153;-89
2021/12/27 02:18:27;;;;;;;8.70;3.88;;;;;;;-10.94;66.34;99281.56;4967428;28;20091;-89
2021/12/27 02:20:55;;;;;;;7.80;3.50;;;;;;;-10.89;66.12;99283.56;4964987;28;20058;-87
2021/12/27 02:23:23;;;;;;;7.38;3.58;;;;;;;-10.85;65.66;99286.44;4962824;28;20051;-90
2021/12/27 02:25:51;;;;;;;8.70;3.80;;;;;;;-10.81;66.30;99295.16;4962286;28;20511;-89
2021/12/27 02:28:20;;;;;;;9.05;3.50;;;;;;;-10.89;66.27;99292.03;4980069;28;20055;-87
2021/12/27 02:30:51;;;;;;;9.45;4.22;;;;;;;-10.86;66.06;99286.31;4961643;28;20054;-87
2021/12/27 02:33:19;;;;;;;7.45;3.72;;;;;;;-10.80;65.86;99304.47;4978640;28;20113;-88
2021/12/27 02:35:58;;;;;;;7.72;3.55;;;;;;;-10.79;66.17;99298.69;4984803;28;20059;-85
2021/12/27 02:38:28;;;;;;;6.63;3.35;;;;;;;-10.68;66.06;99327.28;4975542;28;20054;-86
2021/12/27 02:40:56;;;;;;;7.55;3.88;;;;;;;-10.68;66.05;99315.53;4970748;28;20063;-87
2021/12/27 02:43:25;;;;;;;7.40;3.80;;;;;;;-10.61;66.07;99312.72;4983898;28;20050;-88
2021/12/27 02:45:59;;;;;;;7.10;3.07;;;;;;;-10.59;65.98;99318.75;4964312;28;20082;-89
2021/12/27 02:48:29;;;;;;;6.07;3.80;;;;;;;-10.62;65.61;99315.13;4977707;28;20297;-88
2021/12/27 02:50:57;;;;;;;8.00;3.63;;;;;;;-10.50;65.51;99318.59;4945403;29;20054;-89
2021/12/27 02:53:25;;;;;;;6.28;3.63;;;;;;;-10.63;65.59;99291.50;4927225;29;20314;-89
2021/12/27 02:55:54;;;;;;;7.40;3.75;;;;;;;-10.57;65.72;99304.59;4958234;29;20078;-89
2021/12/27 02:58:22;;;;;;;8.45;3.78;;;;;;;-10.54;65.96;99311.53;4945325;29;20405;-88
2021/12/27 03:00:58;;;;;;;7.78;3.80;;;;;;;-10.52;65.88;99318.50;4940951;29;20055;-87
2021/12/27 03:03:26;;;;;;;7.43;4.05;;;;;;;-10.45;65.91;99331.56;4957750;29;20142;-89
2021/12/27 03:05:53;;;;;;;5.15;3.10;;;;;;;-10.46;66.36;99327.28;4957712;29;20055;-87
2021/12/27 03:08:22;;;;;;;7.65;3.47;;;;;;;-10.44;65.79;99346.84;4957867;29;20083;-86
2021/12/27 03:10:52;;;;;;;7.60;3.78;;;;;;;-10.40;65.78;99355.53;4957819;29;20059;-85
2021/12/27 03:13:28;;;;;;;9.43;4.10;;;;;;;-10.51;65.60;99332.00;4957610;28;20067;-88
2021/12/27 03:16:05;;;;;;;6.53;3.40;;;;;;;-10.33;65.81;99355.25;4940767;29;20051;-87
2021/12/27 03:18:34;;;;;;;7.45;3.97;;;;;;;-10.36;65.83;99332.28;4958296;29;20048;-86
2021/12/27 03:21:02;;;;;;;6.43;3.60;;;;;;;-10.25;65.91;99351.63;4957266;29;20435;-87
2021/12/27 03:23:29;;;;;;;8.07;3.53;;;;;;;-10.17;65.35;99355.63;4965032;28;20050;-87
2021/12/27 03:25:56;;;;;;;7.22;3.40;;;;;;;-10.16;65.62;99359.03;4958990;28;20426;-87
2021/12/27 03:28:24;;;;;;;7.10;3.80;;;;;;;-10.18;65.58;99347.94;4976665;28;20141;-87
2021/12/27 03:30:51;;;;;;;7.75;3.45;;;;;;;-10.22;65.63;99348.44;4976578;28;20117;-87
2021/12/27 03:33:23;;;;;;;7.00;3.60;;;;;;;-10.21;65.67;99350.22;4958398;28;20051;-86
2021/12/27 03:36:00;;;;;;;6.28;3.35;;;;;;;-10.21;65.99;99363.75;4975977;28;20439;-88
2021/12/27 03:38:35;;;;;;;7.55;4.13;;;;;;;-10.23;65.99;99365.25;4942565;28;20054;-87
2021/12/27 03:41:05;;;;;;;9.45;4.07;;;;;;;-10.35;66.16;99339.97;4968664;28;20138;-87
2021/12/27 03:43:32;;;;;;;9.18;4.10;;;;;;;-10.27;65.94;99360.75;4925830;29;20055;-87
2021/12/27 03:45:59;;;;;;;9.68;3.83;;;;;;;-10.24;65.90;99370.19;4959485;29;20047;-90
2021/12/27 03:48:28;;;;;;;10.55;4.43;;;;;;;-10.33;66.06;99361.16;4959170;29;20055;-88
2021/12/27 03:50:56;;;;;;;6.90;3.50;;;;;;;-10.28;66.21;99381.72;4935285;29;20062;-85
2021/12/27 03:53:23;;;;;;;8.65;3.88;;;;;;;-10.32;65.70;99346.91;4939046;29;20470;-86
2021/12/27 03:55:50;;;;;;;8.75;3.83;;;;;;;-10.24;65.82;99371.06;4937383;29;20055;-85
2021/12/27 03:58:27;;;;;;;10.18;4.00;;;;;;;-10.24;66.24;99378.63;4937429;29;20115;-85
2021/12/27 04:01:14;;;;;;;9.82;4.20;;;;;;;-10.28;66.03;99360.59;4940849;29;20055;-86
2021/12/27 04:03:47;;;;;;;7.03;3.85;;;;;;;-10.25;65.65;99361.75;4922011;29;20054;-85
2021/12/27 04:06:40;;;;;;;9.68;4.10;;;;;;;-10.20;65.82;99364.63;4963188;29;20051;-84
2021/12/27 04:09:31;;;;;;;16.67;5.65;;;;;;;-10.19;65.84;99377.38;4961298;29;20059;-84
2021/12/27 04:12:24;;;;;;;8.52;4.78;;;;;;;-10.15;65.32;99375.94;4987355;28;20030;-83
2021/12/27 04:14:51;;;;;;;7.28;4.05;;;;;;;-10.03;65.91;99402.16;4983216;28;20098;-85
2021/12/27 04:17:17;;;;;;;10.00;4.45;;;;;;;-10.07;65.95;99394.22;4943869;28;20054;-84
2021/12/27 04:19:45;;;;;;;9.68;4.45;;;;;;;-10.24;65.85;99366.00;4976182;28;20062;-87
2021/12/27 04:22:12;;;;;;;9.82;4.10;;;;;;;-10.19;65.76;99392.53;4984224;28;20059;-84
2021/12/27 04:24:39;;;;;;;10.23;4.85;;;;;;;-10.07;66.01;99407.72;4986309;28;20093;-87
2021/12/27 04:27:06;;;;;;;10.40;4.38;;;;;;;-10.01;66.07;99414.91;4969373;29;20051;-85
2021/12/27 04:29:33;;;;;;;10.38;4.43;;;;;;;-9.95;65.83;99428.03;4985357;28;20055;-87
2021/12/27 04:32:00;;;;;;;10.68;4.85;;;;;;;-9.93;65.80;99417.25;4989152;28;20070;-83
2021/12/27 04:34:27;;;;;;;9.77;4.47;;;;;;;-9.85;65.69;99427.06;4973848;28;20054;-82
2021/12/27 04:36:54;;;;;;;8.10;4.00;;;;;;;-9.93;65.60;99406.28;4960099;29;20050;-82
2021/12/27 04:39:21;;;;;;;8.30;4.20;;;;;;;-9.95;65.66;99408.69;4971480;29;20055;-83
2021/12/27 04:41:48;;;;;;;9.73;4.43;;;;;;;-9.84;65.42;99416.22;4949392;29;20059;-82
2021/12/27 04:44:16;;;;;;;6.85;3.92;;;;;;;-9.89;65.74;99434.44;4964757;29;20066;-87
2021/12/27 04:46:44;;;;;;;9.88;4.90;;;;;;;-10.05;65.77;99425.53;4947216;29;20110;-84
2021/12/27 04:49:13;;;;;;;10.15;4.88;;;;;;;-10.08;66.09;99415.22;4962381;29;20055;-84
2021/12/27 04:51:40;;;;;;;7.82;4.38;;;;;;;-9.96;65.76;99441.41;4964737;28;20054;-87
2021/12/27 04:54:10;;;;;;;10.07;4.60;;;;;;;-9.91;65.78;99440.13;4936962;29;20111;-84
2021/12/27 04:56:46;;;;;;;8.52;4.20;;;;;;;-10.01;65.70;99433.47;4965505;28;20047;-84
2021/12/27 04:59:14;;;;;;;11.65;4.75;;;;;;;-9.92;65.98;99446.81;4943910;29;20058;-85
2021/12/27 05:01:41;;;;;;;12.32;5.03;;;;;;;-9.91;65.81;99452.78;4960639;29;20055;-85
2021/12/27 05:04:19;;;;;;;9.73;4.25;;;;;;;-9.93;66.09;99441.66;4961467;29;20051;-88
2021/12/27 05:06:47;;;;;;;7.45;4.28;;;;;;;-9.82;66.02;99456.00;4971298;29;20058;-82
2021/12/27 05:09:14;;;;;;;7.13;4.05;;;;;;;-9.75;66.06;99463.28;4968805;29;20089;-84
2021/12/27 05:11:42;;;;;;;8.25;4.63;;;;;;;-9.87;66.27;99444.66;4952873;29;20063;-83
2021/12/27 05:14:09;;;;;;;7.57;4.38;;;;;;;-9.78;66.00;99469.75;4953158;29;20066;-82
2021/12/27 05:16:36;;;;;;;8.40;4.05;;;;;;;-9.82;65.79;99482.94;4952592;29;20073;-85
2021/12/27 05:19:04;;;;;;;8.63;4.20;;;;;;;-10.07;66.07;99443.09;4937921;29;20062;-87
2021/12/27 05:21:31;;;;;;;9.38;4.30;;;;;;;-9.79;66.51;99501.72;4959960;29;20570;-86
2021/12/27 05:23:58;;;;;;;9.60;4.60;;;;;;;-9.79;65.87;99503.38;4959405;29;20063;-86
2021/12/27 05:26:25;;;;;;;10.10;4.63;;;;;;;-9.72;65.72;99501.44;4959528;29;20516;-86
2021/12/27 05:28:52;;;;;;;9.90;4.65;;;;;;;-9.76;65.89;99494.41;4959871;29;20058;-85
2021/12/27 05:31:20;;;;;;;9.05;4.80;;;;;;;-9.68;65.76;99500.03;4942626;29;20090;-85
2021/12/27 05:33:46;;;;;;;9.60;4.20;;;;;;;-9.61;65.89;99511.47;4960850;29;20063;-83
2021/12/27 05:36:14;;;;;;;11.90;5.00;;;;;;;-9.64;65.35;99503.69;4962063;28;20106;-85
2021/12/27 05:38:41;;;;;;;10.27;5.10;;;;;;;-9.70;66.17;99493.97;4958409;29;20047;-85
2021/12/27 05:41:08;;;;;;;9.57;4.93;;;;;;;-9.75;65.84;99503.72;4963575;29;20542;-88
2021/12/27 05:43:35;;;;;;;9.15;4.68;;;;;;;-9.67;65.87;99509.38;4960342;29;20518;-87
2021/12/27 05:46:02;;;;;;;8.10;4.47;;;;;;;-9.68;65.77;99510.13;4959687;29;20507;-86
2021/12/27 05:48:30;;;;;;;9.98;5.25;;;;;;;-9.61;65.71;99519.06;4959549;29;20050;-88
2021/12/27 05:50:57;;;;;;;8.90;3.95;;;;;;;-9.60;65.56;99526.78;4959528;29;20052;-87
2021/12/27 05:53:24;;;;;;;9.38;4.68;;;;;;;-9.64;65.57;99512.13;4966592;28;20082;-86
2021/12/27 05:55:51;;;;;;;10.55;4.53;;;;;;;-9.59;65.80;99532.72;4966587;28;20471;-86
2021/12/27 05:58:18;;;;;;;8.05;4.38;;;;;;;-9.63;65.47;99518.97;4949659;28;20503;-87
2021/12/27 06:00:45;;;;;;;10.88;5.30;;;;;;;-9.66;65.93;99523.78;4970703;28;20063;-86
2021/12/27 06:03:12;;;;;;;9.45;4.40;;;;;;;-9.68;65.74;99523.69;4975550;28;20086;-88
2021/12/27 06:05:41;;;;;;;9.10;4.93;;;;;;;-9.61;65.55;99532.63;4952509;28;20113;-87
2021/12/27 06:08:07;;;;;;;10.10;4.43;;;;;;;-9.54;65.95;99542.44;4952426;28;20066;-88
2021/12/27 06:10:35;;;;;;;15.43;5.15;;;;;;;-9.57;65.04;99531.19;4962069;28;20075;-88
2021/12/27 06:13:02;;;;;;;9.25;5.03;;;;;;;-9.52;65.80;99543.44;4984709;28;20055;-87
2021/12/27 06:15:29;;;;;;;9.68;4.97;;;;;;;-9.51;65.79;99542.66;4957289;28;20074;-88
2021/12/27 06:17:56;;;;;;;9.60;4.50;;;;;;;-9.43;65.70;99557.56;4970161;28;20046;-85
2021/12/27 06:20:23;;;;;;;9.07;4.70;;;;;;;-9.48;65.68;99555.56;4971524;28;20102;-86
2021/12/27 06:22:53;;;;;;;11.05;4.80;;;;;;;-9.53;65.26;99561.00;4952531;28;20171;-86
2021/12/27 06:25:21;;;;;;;10.18;4.72;;;;;;;-9.68;65.48;99540.47;4954143;28;20046;-88
2021/12/27 06:27:48;;;;;;;10.13;5.20;;;;;;;-9.55;65.47;99580.25;4974290;28;20062;-87
2021/12/27 06:30:16;;;;;;;10.85;4.43;;;;;;;-9.59;65.44;99570.66;4984704;28;20203;-85
2021/12/27 06:32:44;;;;;;;12.48;5.10;;;;;;;-9.61;64.96;99560.44;4986710;28;20574;-88
2021/12/27 06:35:16;;;;;;;13.02;4.55;;;;;;;-9.50;65.21;99589.09;4994159;28;20570;-86
2021/12/27 06:37:44;;;;;;;9.60;4.88;;;;;;;-9.45;65.46;99597.03;4979438;28;20093;-85
2021/12/27 06:40:12;;;;;;;10.77;5.32;;;;;;;-9.52;65.06;99585.56;4978522;28;20105;-86
2021/12/27 06:42:40;;;;;;;10.77;4.95;;;;;;;-9.61;65.19;99582.28;4979000;28;20088;-86
2021/12/27 06:45:07;;;;;;;12.63;4.82;;;;;;;-9.52;65.14;99594.00;4960384;28;20086;-88
2021/12/27 06:47:35;;;;;;;11.10;4.85;;;;;;;-9.69;64.86;99577.53;4982459;28;20059;-87
2021/12/27 06:50:03;;;;;;;10.43;5.25;;;;;;;-9.56;65.30;99598.72;4978707;28;20061;-87
2021/12/27 06:52:31;;;;;;;14.13;5.28;;;;;;;-9.40;64.82;99604.19;4962647;28;20063;-84
2021/12/27 06:54:57;;;;;;;12.25;5.28;;;;;;;-9.37;64.37;99593.44;4980414;28;20067;-85
2021/12/27 06:57:56;;;;;;;9.93;4.82;;;;;;;-9.36;64.24;99606.19;4948180;28;20074;-88
2021/12/27 07:00:36;;;;;;;10.93;4.82;;;;;;;-9.48;64.63;99602.75;4923580;28;20130;-86
2021/12/27 07:03:03;;;;;;;11.50;4.57;;;;;;;-9.41;64.87;99599.03;4962693;28;20057;-83
2021/12/27 07:05:30;;;;;;;9.35;4.65;;;;;;;-9.29;64.03;99605.91;4965586;28;20059;-85
2021/12/27 07:07:57;;;;;;;11.13;5.10;;;;;;;-9.34;64.21;99619.84;4951448;28;20174;-86
2021/12/27 07:10:27;;;;;;;14.45;5.07;;;;;;;-9.39;64.53;99618.63;4948720;28;20065;-86
2021/12/27 07:13:03;;;;;;;9.93;4.60;;;;;;;-9.40;64.78;99614.31;4949517;28;20042;-86
2021/12/27 07:15:30;;;;;;;9.88;4.95;;;;;;;-9.37;64.10;99594.31;4973540;28;20050;-87
2021/12/27 07:17:57;;;;;;;14.68;6.47;;;;;;;-9.18;64.03;99628.66;4938433;28;20046;-89
2021/12/27 07:20:24;;;;;;;12.63;5.78;;;;;;;-9.18;63.66;99627.00;4976444;28;20063;-88
2021/12/27 07:22:52;;;;;;;13.88;5.20;;;;;;;-9.17;63.81;99628.75;4967072;28;20075;-85
2021/12/27 07:25:19;;;;;;;11.32;5.15;;;;;;;-9.25;64.04;99632.31;4970187;28;20065;-89
2021/12/27 07:27:46;;;;;;;11.07;5.07;;;;;;;-9.31;63.79;99604.91;4972240;28;20054;-88
2021/12/27 07:30:13;;;;;;;13.95;5.60;;;;;;;-9.17;63.29;99638.00;4973893;28;20055;-86
2021/12/27 07:32:40;;;;;;;11.18;5.18;;;;;;;-9.14;63.66;99636.59;4977562;28;20054;-86
2021/12/27 07:35:08;;;;;;;10.70;4.90;;;;;;;-9.18;63.49;99647.25;4965429;28;20527;-87
2021/12/27 07:37:36;;;;;;;11.15;4.57;;;;;;;-9.32;64.09;99643.63;4965188;28;20061;-87
2021/12/27 07:40:04;;;;;;;12.30;5.13;;;;;;;-9.38;63.80;99632.13;4942727;28;20046;-88
2021/12/27 07:42:32;;;;;;;11.80;5.32;;;;;;;-9.30;63.51;99646.28;4953838;28;20061;-87
2021/12/27 07:44:59;;;;;;;8.70;4.70;;;;;;;-9.37;63.72;99652.50;4967628;28;20086;-86
2021/12/27 07:47:29;;;;;;;11.23;4.82;;;;;;;-9.40;63.53;99651.38;4961261;28;20058;-85
2021/12/27 07:49:56;;;;;;;11.00;5.68;;;;;;;-9.29;63.49;99654.00;4951393;29;20141;-88
2021/12/27 07:52:27;;;;;;;10.98;5.50;;;;;;;-9.33;63.14;99662.09;4946573;28;20051;-86
2021/12/27 07:54:54;;;;;;;9.30;5.13;;;;;;;-9.19;62.92;99669.88;4965910;28;20057;-88
2021/12/27 07:57:21;;;;;;;10.80;4.80;;;;;;;-9.19;62.99;99660.63;4964357;28;20058;-86
2021/12/27 07:59:50;;;;;;;11.07;5.20;;;;;;;-9.27;62.86;99651.56;4948677;28;20102;-86
2021/12/27 08:02:18;;;;;;;11.10;5.30;;;;;;;-9.12;62.16;99662.00;4954215;28;20065;-87
2021/12/27 08:04:45;;;;;;;13.52;5.68;;;;;;;-8.96;62.08;99700.41;4971988;28;20117;-85
2021/12/27 08:07:13;;;;;;;10.70;4.60;;;;;;;-9.04;62.63;99673.59;4952823;28;20455;-84
2021/12/27 08:09:40;;;;;;;11.43;5.35;;;;;;;-9.02;61.83;99706.63;4948883;28;20062;-86
2021/12/27 08:12:12;;;;;;;11.40;5.40;;;;;;;-9.18;62.71;99696.97;4982462;28;20047;-86
2021/12/27 08:14:40;;;;;;;10.73;4.95;;;;;;;-9.13;62.74;99695.66;4943454;29;20299;-90
2021/12/27 08:17:07;;;;;;;13.57;6.15;;;;;;;-9.16;62.35;99685.28;4953170;28;20146;-87
2021/12/27 08:19:36;;;;;;;11.43;5.30;;;;;;;-9.08;62.74;99710.47;4949744;28;20062;-89
2021/12/27 08:22:07;;;;;;;12.88;5.50;;;;;;;-8.89;62.51;99699.22;4965091;28;20066;-88
2021/12/27 08:24:34;;;;;;;10.18;5.28;;;;;;;-8.87;62.08;99688.44;4969623;28;20082;-87
2021/12/27 08:27:03;;;;;;;9.85;4.50;;;;;;;-8.80;61.90;99701.56;4969475;28;20139;-88
2021/12/27 08:29:30;;;;;;;12.93;5.75;;;;;;;-8.89;61.82;99702.63;4976137;28;20054;-87
2021/12/27 08:31:58;;;;;;;12.15;5.13;;;;;;;-8.76;62.12;99698.50;4928216;28;20074;-87
2021/12/27 08:34:25;;;;;;;11.93;5.13;;;;;;;-8.84;61.97;99692.84;4979638;28;20098;-86
2021/12/27 08:36:53;;;;;;;13.32;5.40;;;;;;;-8.94;62.07;99683.69;4979584;28;20055;-84
2021/12/27 08:39:20;;;;;;;12.93;4.90;;;;;;;-8.79;61.34;99700.81;4976689;28;20462;-87
2021/12/27 08:41:47;;;;;;;10.23;5.05;;;;;;;-9.13;61.25;99676.31;4975967;28;20153;-86
2021/12/27 08:44:14;;;;;;;12.05;5.43;;;;;;;-9.38;62.01;99683.59;4976410;28;20502;-88
2021/12/27 08:46:42;;;;;;;11.10;5.10;;;;;;;-9.66;63.04;99692.31;4942403;28;20145;-87
2021/12/27 08:49:09;;;;;;;10.85;4.30;;;;;;;-9.83;63.18;99669.06;4958081;28;20606;-87
2021/12/27 08:51:41;;;;;;;12.23;5.60;;;;;;;-9.61;63.26;99709.63;4956040;28;20146;-85
2021/12/27 08:54:08;;;;;;;12.75;5.50;;;;;;;-9.41;62.47;99710.34;4938581;29;20051;-83
2021/12/27 08:56:36;;;;;;;10.02;5.00;;;;;;;-9.53;62.56;99712.75;4954569;29;20059;-86
2021/12/27 08:59:04;;;;;;;12.63;4.80;;;;;;;-9.64;62.79;99714.44;4955230;29;20138;-84
2021/12/27 09:01:34;;;;;;;10.32;5.13;;;;;;;-9.92;63.07;99679.34;4954418;29;20408;-84
2021/12/27 09:04:04;;;;;;;10.57;4.88;;;;;;;-9.79;62.49;99703.09;4954977;29;20567;-85
2021/12/27 09:06:33;;;;;;;12.82;5.88;;;;;;;-9.79;62.74;99705.59;4954890;29;20051;-86
2021/12/27 09:09:03;;;;;;;9.93;4.95;;;;;;;-9.72;62.89;99707.84;4955267;29;20138;-84
2021/12/27 09:11:30;;;;;;;14.83;5.40;;;;;;;-9.77;62.44;99711.69;4957380;28;20055;-86
2021/12/27 09:13:58;;;;;;;13.75;4.35;;;;;;;-9.93;62.15;99686.81;4942951;29;20294;-86
2021/12/27 09:16:43;;;;;;;19.90;7.43;;;;;;;-9.97;62.75;99703.38;4959899;29;20487;-84
2021/12/27 09:19:11;;;;;;;7.95;4.57;;;;;;;-9.91;62.86;99711.44;4947292;29;20051;-86
2021/12/27 09:21:39;;;;;;;14.30;5.57;;;;;;;-9.96;62.78;99701.72;4942496;29;20066;-86
2021/12/27 09:24:07;;;;;;;12.15;5.32;;;;;;;-9.77;62.70;99717.59;4961004;29;20074;-86
2021/12/27 09:26:35;;;;;;;9.88;5.00;;;;;;;-9.69;62.25;99709.00;4941911;29;20055;-84
2021/12/27 09:29:03;;;;;;;12.75;5.25;;;;;;;-9.68;62.36;99708.25;4927509;29;20058;-85
2021/12/27 09:31:30;;;;;;;9.02;4.15;;;;;;;-9.75;61.84;99708.50;4964793;29;20066;-86
2021/12/27 09:33:58;;;;;;;9.32;4.43;;;;;;;-9.66;62.65;99720.13;4950092;28;20054;-87
2021/12/27 09:36:24;;;;;;;8.40;4.13;;;;;;;-9.81;62.51;99675.13;4978208;28;20570;-84
2021/12/27 09:38:52;;;;;;;8.77;4.00;;;;;;;-9.76;61.99;99711.81;4979603;28;20511;-88
2021/12/27 09:41:24;;;;;;;11.40;4.47;;;;;;;-9.65;61.94;99720.25;4983676;28;20060;-85
2021/12/27 09:43:53;;;;;;;7.97;4.03;;;;;;;-9.67;61.94;99724.31;4966599;28;20050;-87
2021/12/27 09:46:25;;;;;;;8.63;4.18;;;;;;;-9.65;62.20;99722.78;4979878;28;20570;-87
2021/12/27 09:49:01;;;;;;;10.43;4.60;;;;;;;-9.97;62.12;99697.44;4963293;28;20074;-87
2021/12/27 09:51:30;;;;;;;10.50;4.20;;;;;;;-9.71;61.76;99732.41;4979655;28;20058;-89
2021/12/27 09:53:59;;;;;;;17.58;4.88;;;;;;;-9.81;62.04;99712.19;4983839;28;20628;-85
2021/12/27 09:56:27;;;;;;;13.90;4.70;;;;;;;-9.79;62.08;99729.25;4979248;28;20060;-86
2021/12/27 09:58:56;;;;;;;9.63;4.32;;;;;;;-9.98;62.37;99718.41;4979336;28;20050;-87
2021/12/27 10:01:27;;;;;;;11.77;4.32;;;;;;;-9.99;61.96;99732.69;4962612;28;20141;-87
2021/12/27 10:03:58;;;;;;;10.98;4.20;;;;;;;-9.95;62.36;99749.88;4979393;28;20057;-85
2021/12/27 10:06:30;;;;;;;7.93;3.92;;;;;;;-9.88;61.80;99743.66;4983092;28;20617;-86
2021/12/27 10:09:01;;;;;;;9.07;4.18;;;;;;;-9.96;61.61;99740.53;4983203;28;20145;-86
2021/12/27 10:11:32;;;;;;;10.40;4.85;;;;;;;-9.76;62.23;99748.84;4956926;28;20079;-88
2021/12/27 10:13:59;;;;;;;8.48;4.32;;;;;;;-9.71;61.40;99750.97;4970183;28;20141;-88
2021/12/27 10:16:28;;;;;;;10.60;4.45;;;;;;;-9.71;61.68;99735.81;4966810;28;20059;-86
2021/12/27 10:18:58;;;;;;;9.20;3.95;;;;;;;-9.71;61.82;99745.03;4992017;28;20061;-87
2021/12/27 10:21:26;;;;;;;10.07;4.88;;;;;;;-9.74;62.20;99754.91;4999406;28;20074;-87
2021/12/27 10:24:10;;;;;;;13.63;4.82;;;;;;;-9.62;62.17;99749.97;4982355;28;20062;-84
2021/12/27 10:26:37;;;;;;;12.70;4.93;;;;;;;-9.53;61.86;99748.16;4999819;28;20061;-84
2021/12/27 10:29:09;;;;;;;10.70;5.13;;;;;;;-9.56;61.97;99740.34;4999547;28;20058;-87
2021/12/27 10:31:53;;;;;;;10.57;4.65;;;;;;;-9.57;62.09;99756.25;4967333;28;20062;-87
2021/12/27 10:34:24;;;;;;;8.02;4.20;;;;;;;-9.68;61.95;99753.78;5000030;28;20039;-85
2021/12/27 10:37:19;;;;;;;9.38;4.00;;;;;;;-9.74;62.36;99758.31;4997267;28;20083;-84
2021/12/27 10:39:46;;;;;;;7.90;4.07;;;;;;;-9.70;62.38;99754.38;4988233;28;20050;-86
2021/12/27 10:42:18;;;;;;;10.15;4.63;;;;;;;-9.78;62.16;99747.84;4985834;28;20598;-88
2021/12/27 10:44:46;;;;;;;9.40;4.50;;;;;;;-9.74;62.56;99760.84;4969827;28;20120;-84
2021/12/27 10:47:28;;;;;;;10.75;5.30;;;;;;;-10.13;62.57;99710.44;4997653;28;20055;-88
2021/12/27 10:50:02;;;;;;;10.77;4.50;;;;;;;-9.77;62.46;99773.22;4996349;28;20038;-88
2021/12/27 10:52:47;;;;;;;9.73;4.70;;;;;;;-9.62;62.40;99780.31;4993172;28;20057;-85
2021/12/27 10:55:18;;;;;;;11.55;4.90;;;;;;;-9.70;62.61;99769.56;4987426;28;20114;-85
2021/12/27 10:57:45;;;;;;;14.93;6.22;;;;;;;-9.62;62.25;99772.72;4978958;28;20058;-87
2021/12/27 11:00:30;;;;;;;20.00;5.85;;;;;;;-9.60;62.24;99759.44;4977939;28;20412;-83
2021/12/27 11:03:02;;;;;;;17.73;6.13;;;;;;;-9.62;62.45;99762.59;4978218;28;20058;-86
2021/12/27 11:05:33;;;;;;;12.43;5.60;;;;;;;-9.48;62.67;99772.19;4970693;28;20061;-90
2021/12/27 11:08:04;;;;;;;10.25;5.55;;;;;;;-9.37;62.46;99779.00;4961871;28;20101;-88
2021/12/27 11:10:45;;;;;;;12.27;5.45;;;;;;;-9.43;62.45;99772.56;4963143;28;20507;-88
2021/12/27 11:13:12;;;;;;;15.38;6.57;;;;;;;-9.49;62.38;99775.47;4947896;28;20065;-87
2021/12/27 11:15:41;;;;;;;10.98;6.00;;;;;;;-9.52;62.85;99770.19;4978431;28;20054;-88
2021/12/27 11:18:12;;;;;;;11.98;5.43;;;;;;;-9.42;62.59;99774.31;4978191;28;20054;-89
2021/12/27 11:20:51;;;;;;;14.02;5.95;;;;;;;-9.50;62.80;99771.19;4978437;28;20055;-88
2021/12/27 11:23:22;;;;;;;11.32;5.28;;;;;;;-9.71;62.65;99771.19;4962799;28;20054;-85
2021/12/27 11:26:07;;;;;;;13.02;5.80;;;;;;;-9.50;63.12;99774.59;4947801;29;20066;-87
2021/12/27 11:28:37;;;;;;;14.20;5.55;;;;;;;-9.48;62.89;99783.19;4940898;29;20463;-90
2021/12/27 11:31:23;;;;;;;12.23;5.57;;;;;;;-9.47;62.82;99784.06;4945657;29;20082;-84
2021/12/27 11:33:56;;;;;;;11.85;5.47;;;;;;;-9.44;63.01;99779.28;4966228;28;20042;-86
2021/12/27 11:36:28;;;;;;;13.27;5.35;;;;;;;-9.43;62.91;99783.56;4980973;28;20055;-86
2021/12/27 11:38:57;;;;;;;13.98;5.28;;;;;;;-9.48;63.04;99768.00;4979165;28;20491;-87
2021/12/27 11:41:26;;;;;;;10.52;5.55;;;;;;;-9.32;62.53;99775.19;4962036;28;20529;-88